Time;durP1;ratioP1;P1;durP2;ratioP2;P2;SDS_P1;SDS_P2;PMS_P1;PMS_P2;Temp;Humidity;BMP_temperature;BMP_pressure;BME280_temperature;BME280_humidity;BME280_pressure;Samples;Min_cycle;Max_cycle;Signal;HPM_P1;HPM_P2
2021/09/28 19:35:07;;;;;;;4.95;1.40;;;15.00;99.90;;;12.32;84.21;101586.69;2568781;30;137728;-41
2021/09/28 19:37:40;;;;;;;4.65;1.25;;;13.80;99.90;;;12.31;86.55;101582.28;2568403;30;137658;-40
2021/09/28 19:40:11;;;;;;;3.13;1.08;;;13.80;99.90;;;12.31;85.08;101588.56;2567120;30;138784;-39
2021/09/28 19:42:45;;;;;;;7.78;1.67;;;13.80;99.90;;;12.31;86.00;101580.38;2570177;30;137143;-39
2021/09/28 19:45:16;;;;;;;5.53;2.13;;;13.80;99.90;;;12.32;85.96;101581.22;2567256;30;138930;-40
2021/09/28 19:47:44;;;;;;;3.95;1.20;;;13.80;99.90;;;12.25;84.96;101578.47;2570668;30;136990;-39
2021/09/28 19:50:12;;;;;;;5.68;1.27;;;13.70;99.90;;;12.18;84.74;101583.91;2570970;30;138514;-39
2021/09/28 19:52:45;;;;;;;5.95;1.42;;;13.70;99.90;;;12.13;84.78;101582.84;2569618;30;137273;-39
2021/09/28 19:58:09;;;;;;;4.70;1.35;;;13.60;99.90;;;12.05;85.64;101581.94;2572209;30;137268;-40
2021/09/28 20:06:10;;;;;;;4.43;1.27;;;13.40;99.90;;;11.88;85.60;101569.66;2570764;30;137558;-40
2021/09/28 20:36:11;;;;;;;6.07;2.05;;;13.00;99.90;;;11.49;87.38;101556.41;2570206;30;137365;-39
2021/09/28 20:38:43;;;;;;;6.15;1.67;;;13.00;99.90;;;11.45;87.90;101552.38;2568378;30;138307;-39
2021/09/28 20:41:14;;;;;;;5.00;1.70;;;12.90;99.90;;;11.43;88.41;101551.75;2569187;30;136641;-39
2021/09/28 20:43:42;;;;;;;5.72;1.58;;;12.90;99.90;;;11.42;88.18;101546.50;2570264;30;137368;-39
2021/09/28 20:46:12;;;;;;;;;;;12.90;99.90;;;11.39;88.55;101536.81;2568474;30;136607;-40
2021/09/28 20:48:41;;;;;;;4.50;1.70;;;12.90;99.90;;;11.35;88.13;101530.88;2568280;30;137661;-40
2021/09/28 20:51:09;;;;;;;4.47;1.58;;;12.90;99.90;;;11.33;88.55;101538.44;2568354;30;137925;-39
2021/09/28 20:53:38;;;;;;;4.32;1.50;;;12.80;99.90;;;11.31;88.79;101536.97;2569508;30;139014;-40
2021/09/28 20:56:05;;;;;;;4.72;1.63;;;12.80;99.90;;;11.28;89.29;101532.75;2568479;30;136998;-40
2021/09/28 20:58:33;;;;;;;4.43;1.63;;;12.80;99.90;;;11.29;89.52;101528.97;2569932;30;139219;-39
2021/09/28 21:01:01;;;;;;;4.88;1.60;;;12.80;99.90;;;11.26;89.69;101518.44;2570307;30;137484;-40
2021/09/28 21:03:29;;;;;;;;;;;12.80;99.90;;;11.24;89.63;101515.06;2568917;30;139321;-39
2021/09/28 21:05:56;;;;;;;7.05;1.65;;;12.70;99.90;;;11.22;89.82;101511.69;2568433;30;138220;-40
2021/09/28 21:08:24;;;;;;;4.35;1.65;;;12.70;99.90;;;11.18;89.74;101513.16;2569796;30;138344;-40
2021/09/28 21:10:51;;;;;;;4.15;1.60;;;12.70;99.90;;;11.16;90.53;101512.50;2570736;30;137376;-39
2021/09/28 21:13:19;;;;;;;6.03;1.85;;;12.70;99.90;;;11.13;90.49;101507.41;2568784;30;138594;-40
2021/09/28 21:15:48;;;;;;;5.25;1.50;;;12.60;99.90;;;11.10;90.79;101499.63;2569020;30;137726;-40
2021/09/28 21:18:18;;;;;;;7.53;1.95;;;12.60;99.90;;;11.08;90.67;101499.84;2569203;30;139082;-39
2021/09/28 21:20:47;;;;;;;4.28;1.92;;;12.60;99.90;;;11.04;90.90;101495.81;2572562;30;137661;-39
2021/09/28 21:23:15;;;;;;;6.97;1.60;;;12.60;99.90;;;11.00;91.01;101492.63;2568600;30;138280;-39
2021/09/28 21:25:43;;;;;;;6.35;1.90;;;12.50;99.90;;;10.98;91.41;101496.59;2568402;30;137949;-40
2021/09/28 21:28:11;;;;;;;4.70;1.70;;;12.50;99.90;;;10.96;91.60;101490.50;2569147;30;138405;-40
2021/09/28 21:30:39;;;;;;;5.53;1.63;;;12.50;99.90;;;10.91;91.77;101491.09;2567529;30;137254;-39
2021/09/28 21:33:09;;;;;;;2.97;1.58;;;12.40;99.90;;;10.89;92.06;101491.28;2565515;30;138383;-40
2021/09/28 21:35:45;;;;;;;4.63;1.85;;;12.40;99.90;;;10.84;92.37;101484.72;2569257;30;136775;-39
2021/09/28 21:38:13;;;;;;;5.72;1.58;;;12.40;99.90;;;10.84;92.35;101484.72;2570141;30;137609;-39
2021/09/28 21:40:40;;;;;;;6.47;1.90;;;12.40;99.90;;;10.83;92.28;101486.63;2570168;30;138278;-39
2021/09/28 21:43:09;;;;;;;3.88;1.58;;;12.30;99.90;;;10.82;92.09;101484.09;2568054;30;138538;-39
2021/09/28 21:45:36;;;;;;;6.35;1.65;;;12.30;99.90;;;10.78;92.07;101473.56;2565734;30;138434;-40
2021/09/28 21:48:07;;;;;;;6.45;1.70;;;12.30;99.90;;;10.70;92.39;101465.53;2568730;30;138470;-39
2021/09/28 21:50:39;;;;;;;7.10;2.00;;;12.30;99.90;;;10.73;92.48;101469.75;2569720;30;138161;-39
2021/09/28 21:53:07;;;;;;;3.80;2.00;;;12.30;99.90;;;10.68;92.95;101467.63;2571174;30;137133;-40
2021/09/28 21:55:36;;;;;;;;;;;12.20;99.90;;;10.67;92.82;101465.94;2567892;30;137465;-39
2021/09/28 21:58:04;;;;;;;4.60;1.80;;;12.20;99.90;;;10.65;92.87;101473.47;2571328;30;139275;-40
2021/09/28 22:00:32;;;;;;;4.00;1.38;;;12.20;99.90;;;10.63;92.82;101467.38;2569656;30;137792;-39
2021/09/28 22:02:59;;;;;;;5.95;2.05;;;12.20;99.90;;;10.63;93.35;101461.91;2567519;30;137436;-39
2021/09/28 22:05:27;;;;;;;10.60;2.03;;;12.20;99.90;;;10.63;93.30;101464.66;2567777;30;138182;-39
2021/09/28 22:07:55;;;;;;;3.22;1.50;;;12.20;99.90;;;10.61;93.76;101467.56;2569527;30;137316;-39
2021/09/28 22:10:23;;;;;;;5.00;2.00;;;12.20;99.90;;;10.64;93.90;101464.44;2566490;30;136900;-40
2021/09/28 22:12:50;;;;;;;9.90;2.10;;;12.20;99.90;;;10.67;93.82;101470.53;2568586;30;139055;-40
2021/09/28 22:15:19;;;;;;;5.75;1.70;;;12.20;99.90;;;10.65;93.23;101457.94;2566701;30;137644;-39
2021/09/28 22:17:46;;;;;;;3.83;1.77;;;12.20;99.90;;;10.65;93.97;101462.56;2569413;30;138265;-39
2021/09/28 22:20:14;;;;;;;5.38;1.80;;;12.20;99.90;;;10.66;93.87;101464.25;2568201;30;137452;-39
2021/09/28 22:22:42;;;;;;;4.53;1.65;;;12.20;99.90;;;10.64;93.57;101453.53;2570290;30;138327;-41
2021/09/28 22:25:10;;;;;;;;;;;12.20;99.90;;;10.65;93.38;101452.47;2569334;30;138517;-39
2021/09/28 22:27:38;;;;;;;5.65;2.05;;;12.20;99.90;;;10.64;93.91;101450.78;2566641;30;139242;-39
2021/09/28 22:30:08;;;;;;;7.68;2.20;;;12.20;99.90;;;10.71;93.37;101456.31;2569408;30;138057;-39
2021/09/28 22:32:37;;;;;;;5.82;2.20;;;12.20;99.90;;;10.69;93.87;101455.66;2571502;30;138496;-40
2021/09/28 22:35:05;;;;;;;8.40;2.03;;;12.20;99.90;;;10.69;93.66;101446.63;2569378;30;137492;-39
2021/09/28 22:37:32;;;;;;;4.47;1.90;;;12.20;99.90;;;10.71;93.95;101450.00;2567558;30;138983;-39
2021/09/28 22:40:00;;;;;;;7.30;1.90;;;12.20;99.90;;;10.70;93.54;101449.16;2571087;30;138333;-39
2021/09/28 22:42:28;;;;;;;5.75;1.70;;;12.20;99.90;;;10.69;93.92;101444.75;2569654;30;137377;-39
2021/09/28 22:44:55;;;;;;;4.95;1.85;;;12.20;99.90;;;10.72;93.75;101447.06;2569673;30;138249;-40
2021/09/28 22:47:23;;;;;;;6.78;2.00;;;12.20;99.90;;;10.73;93.28;101443.31;2570420;30;138349;-39
2021/09/28 22:49:50;;;;;;;5.30;1.90;;;12.20;99.90;;;10.75;93.14;101437.66;2570675;30;138392;-39
2021/09/28 22:52:18;;;;;;;6.97;2.33;;;12.30;99.90;;;10.78;93.04;101442.72;2568443;30;138413;-39
2021/09/28 22:54:45;;;;;;;6.13;1.83;;;12.30;99.90;;;10.81;92.74;101444.19;2570643;30;137097;-39
2021/09/28 22:57:13;;;;;;;5.28;1.83;;;12.30;99.90;;;10.79;93.25;101441.69;2572400;30;137390;-39
2021/09/28 22:59:44;;;;;;;4.50;1.60;;;12.30;99.90;;;10.77;93.49;101439.13;2567732;30;137693;-39
2021/09/28 23:02:12;;;;;;;5.82;2.10;;;12.30;99.90;;;10.79;93.85;101441.69;2568919;30;138643;-40
2021/09/28 23:04:40;;;;;;;5.72;1.77;;;12.30;99.90;;;10.82;93.54;101438.53;2569235;30;137024;-39
2021/09/28 23:07:08;;;;;;;5.25;2.10;;;12.30;99.90;;;10.82;93.03;101434.97;2570959;30;137552;-39
2021/09/28 23:09:35;;;;;;;5.72;1.85;;;12.30;99.90;;;10.87;93.96;101438.78;2570619;30;137695;-40
2021/09/28 23:12:03;;;;;;;6.07;1.92;;;12.30;99.90;;;10.81;93.86;101436.00;2568744;30;138644;-40
2021/09/28 23:14:31;;;;;;;;;;;12.30;99.90;;;10.82;93.99;101435.81;2572592;30;136875;-39
2021/09/28 23:16:59;;;;;;;5.10;1.92;;;12.30;99.90;;;10.82;94.08;101441.28;2569556;30;138897;-39
2021/09/28 23:19:27;;;;;;;4.88;1.40;;;12.30;99.90;;;10.79;94.32;101433.50;2569392;30;137480;-39
2021/09/28 23:21:55;;;;;;;4.05;1.67;;;12.30;99.90;;;10.78;94.29;101432.63;2568438;30;138311;-39
2021/09/28 23:24:23;;;;;;;;;;;12.30;99.90;;;10.75;94.28;101427.56;2566875;30;138107;-40
2021/09/28 23:26:50;;;;;;;4.53;1.73;;;12.30;99.90;;;10.75;94.38;101427.56;2568966;30;138397;-39
2021/09/28 23:29:18;;;;;;;5.68;1.83;;;12.30;99.90;;;10.73;94.38;101421.47;2568111;30;137219;-39
2021/09/28 23:31:46;;;;;;;3.60;1.80;;;12.20;99.90;;;10.71;94.69;101422.69;2568617;30;137372;-39
2021/09/28 23:34:13;;;;;;;3.38;1.60;;;12.20;99.90;;;10.69;94.49;101422.06;2568266;30;137483;-39
2021/09/28 23:36:41;;;;;;;6.07;1.70;;;12.20;99.90;;;10.68;94.62;101417.66;2569507;30;138424;-39
2021/09/28 23:39:08;;;;;;;5.68;1.70;;;12.20;99.90;;;10.68;94.36;101415.78;2568821;30;136617;-40
2021/09/28 23:41:36;;;;;;;7.18;1.70;;;12.20;99.90;;;10.64;94.77;101407.13;2568593;30;137941;-39
2021/09/28 23:44:04;;;;;;;7.90;2.22;;;12.10;99.90;;;10.68;95.05;101406.72;2569089;30;138172;-39
2021/09/28 23:46:31;;;;;;;6.97;2.00;;;12.20;99.90;;;10.69;94.27;101412.00;2568192;30;137913;-39
2021/09/28 23:48:58;;;;;;;4.47;1.77;;;12.20;99.90;;;10.68;94.37;101407.59;2568509;30;136888;-39
2021/09/28 23:51:26;;;;;;;3.85;1.73;;;12.20;99.90;;;10.65;94.61;101397.91;2570223;30;138336;-40
2021/09/28 23:53:54;;;;;;;4.63;1.60;;;12.20;99.90;;;10.68;94.09;101396.66;2568234;30;136673;-39
2021/09/28 23:56:21;;;;;;;6.05;1.83;;;12.20;99.90;;;10.68;94.06;101393.09;2568233;30;138416;-40
2021/09/28 23:58:49;;;;;;;5.55;2.08;;;12.20;99.90;;;10.68;94.23;101393.09;2568265;30;136735;-39
